Time;durP1;ratioP1;P1;durP2;ratioP2;P2;SDS_P1;SDS_P2;PMS_P1;PMS_P2;Temp;Humidity;BMP_temperature;BMP_pressure;BME280_temperature;BME280_humidity;BME280_pressure;Samples;Min_cycle;Max_cycle;Signal;HPM_P1;HPM_P2
2022/01/02 00:01:46;;;;;;;4.95;2.40;;;12.10;99.90;;;;;;5008002;28;20053;-72
2022/01/02 00:04:22;;;;;;;6.80;2.85;;;12.10;99.90;;;;;;5009955;28;20061;-72
2022/01/02 00:06:51;;;;;;;5.80;2.95;;;12.10;99.90;;;;;;5007151;28;20514;-72
2022/01/02 00:09:31;;;;;;;4.90;2.55;;;12.10;99.90;;;;;;5008825;28;20029;-72
2022/01/02 00:12:10;;;;;;;4.80;2.72;;;12.10;99.90;;;;;;5008712;28;20041;-72
2022/01/02 00:14:41;;;;;;;8.43;3.10;;;12.10;99.90;;;;;;5011774;28;20993;-72
2022/01/02 00:17:07;;;;;;;6.90;2.40;;;12.10;99.90;;;;;;5008899;28;20026;-72
2022/01/02 00:19:34;;;;;;;8.15;3.15;;;12.00;99.90;;;;;;5005878;28;20046;-72
2022/01/02 00:22:04;;;;;;;7.10;3.00;;;12.00;99.90;;;;;;5011760;28;20457;-72
2022/01/02 00:24:31;;;;;;;4.65;2.88;;;12.10;99.90;;;;;;5010464;28;20018;-72
2022/01/02 00:26:58;;;;;;;6.28;2.92;;;12.10;99.90;;;;;;5011758;28;20503;-72
2022/01/02 00:29:25;;;;;;;7.82;2.85;;;12.10;99.90;;;;;;5011932;28;20050;-72
2022/01/02 00:31:55;;;;;;;7.57;3.25;;;12.10;99.90;;;;;;5011245;28;20028;-72
2022/01/02 00:34:21;;;;;;;6.97;3.17;;;12.10;99.90;;;;;;5012913;28;20014;-72
2022/01/02 00:36:47;;;;;;;6.72;3.30;;;12.10;99.90;;;;;;5007701;28;20030;-71
2022/01/02 00:39:13;;;;;;;6.97;3.05;;;12.00;99.90;;;;;;5010809;28;20455;-72
2022/01/02 00:41:49;;;;;;;5.50;2.80;;;12.00;99.90;;;;;;5011884;28;20030;-72
2022/01/02 00:44:40;;;;;;;5.28;2.97;;;12.00;99.90;;;;;;5006126;28;20493;-72
2022/01/02 00:47:10;;;;;;;7.90;2.75;;;11.90;99.90;;;;;;5009593;28;20034;-72
2022/01/02 00:49:41;;;;;;;4.55;2.60;;;12.00;99.90;;;;;;5009189;28;20030;-72
2022/01/02 00:52:20;;;;;;;7.20;3.45;;;12.00;99.90;;;;;;5009812;28;20041;-72
2022/01/02 00:54:49;;;;;;;6.85;3.00;;;11.90;99.90;;;;;;5007314;28;20052;-72
2022/01/02 00:57:17;;;;;;;7.28;3.30;;;11.90;99.90;;;;;;5007839;28;20042;-72
2022/01/02 01:00:07;;;;;;;6.95;3.20;;;11.90;99.90;;;;;;5007313;28;20117;-72
2022/01/02 01:02:37;;;;;;;5.70;2.72;;;11.90;99.90;;;;;;5013507;28;20025;-72
2022/01/02 01:05:06;;;;;;;4.73;2.80;;;11.90;99.90;;;;;;5004606;28;20113;-72
2022/01/02 01:07:32;;;;;;;8.98;4.25;;;11.80;99.90;;;;;;5007108;28;20269;-72
2022/01/02 01:10:03;;;;;;;6.60;3.58;;;11.80;99.90;;;;;;5010098;28;20030;-72
2022/01/02 01:12:29;;;;;;;5.05;3.03;;;11.80;99.90;;;;;;4993569;28;20050;-72
2022/01/02 01:14:56;;;;;;;7.90;3.67;;;11.80;99.90;;;;;;5006747;28;20037;-72
2022/01/02 01:17:22;;;;;;;5.32;3.05;;;11.80;99.90;;;;;;5010635;28;20092;-72
2022/01/02 01:19:51;;;;;;;4.15;3.00;;;11.80;99.90;;;;;;5013558;28;20060;-72
2022/01/02 01:22:16;;;;;;;9.02;3.55;;;11.80;99.90;;;;;;5008587;28;20487;-72
2022/01/02 01:24:42;;;;;;;6.25;3.22;;;11.70;99.90;;;;;;5004602;28;20030;-72
2022/01/02 01:27:09;;;;;;;6.78;3.83;;;11.80;99.90;;;;;;5016297;28;20048;-72
2022/01/02 01:29:36;;;;;;;6.22;3.65;;;11.70;99.90;;;;;;5017501;28;20569;-72
2022/01/02 01:32:03;;;;;;;6.03;3.38;;;11.70;99.90;;;;;;5004927;28;20108;-72
2022/01/02 01:34:29;;;;;;;7.10;3.20;;;11.70;99.90;;;;;;5001254;28;20038;-72
2022/01/02 01:36:55;;;;;;;7.65;4.00;;;11.70;99.90;;;;;;5002658;28;20033;-72
2022/01/02 01:39:20;;;;;;;5.97;3.38;;;11.70;99.90;;;;;;4999320;28;20033;-72
2022/01/02 01:41:47;;;;;;;8.00;3.78;;;11.70;99.90;;;;;;5001832;28;20069;-72
2022/01/02 01:46:39;;;;;;;5.93;3.45;;;11.60;99.90;;;;;;5010483;28;20527;-72
2022/01/02 01:49:16;;;;;;;6.43;4.00;;;11.60;99.90;;;;;;5008945;28;20155;-72
2022/01/02 01:51:44;;;;;;;9.20;3.97;;;11.60;99.90;;;;;;5005223;28;20037;-72
2022/01/02 01:54:10;;;;;;;6.22;3.92;;;11.60;99.90;;;;;;5006994;28;20026;-72
2022/01/02 01:56:37;;;;;;;8.15;3.72;;;11.60;99.90;;;;;;5005725;28;20372;-72
2022/01/02 01:59:04;;;;;;;13.32;4.32;;;11.60;99.90;;;;;;5010030;28;20050;-72
2022/01/02 02:01:30;;;;;;;8.82;4.00;;;11.60;99.90;;;;;;5008703;28;20111;-72
2022/01/02 02:03:57;;;;;;;7.97;4.00;;;11.50;99.90;;;;;;5008699;28;20038;-72
2022/01/02 02:06:22;;;;;;;12.35;4.10;;;11.50;99.90;;;;;;5007608;28;20030;-72
2022/01/02 02:08:50;;;;;;;8.60;3.92;;;11.50;99.90;;;;;;5005372;28;20939;-72
2022/01/02 02:11:16;;;;;;;9.25;4.65;;;11.40;99.90;;;;;;5008656;28;20019;-72
2022/01/02 02:13:44;;;;;;;8.05;4.70;;;11.30;99.90;;;;;;5010005;28;20084;-72
2022/01/02 02:16:09;;;;;;;12.88;5.90;;;11.20;99.90;;;;;;5006361;28;20032;-72
2022/01/02 02:18:35;;;;;;;10.75;5.45;;;11.20;99.90;;;;;;5003570;28;20105;-71
2022/01/02 02:21:01;;;;;;;12.65;5.43;;;11.10;99.90;;;;;;5005626;28;20084;-71
2022/01/02 02:23:27;;;;;;;11.32;6.18;;;11.00;99.90;;;;;;5006754;28;20029;-71
2022/01/02 02:25:53;;;;;;;14.85;5.78;;;11.00;99.90;;;;;;5004294;28;20017;-71
2022/01/02 02:28:19;;;;;;;12.80;6.22;;;10.90;99.90;;;;;;5004517;28;20030;-71
2022/01/02 02:30:47;;;;;;;11.50;6.25;;;10.90;99.90;;;;;;5004335;28;20095;-71
2022/01/02 02:33:15;;;;;;;13.25;6.22;;;10.80;99.90;;;;;;5004047;28;20033;-71
2022/01/02 02:35:42;;;;;;;12.82;6.40;;;10.80;99.90;;;;;;5002686;28;20168;-71
2022/01/02 02:38:10;;;;;;;16.20;7.07;;;10.80;99.90;;;;;;5002442;28;20041;-71
2022/01/02 02:40:37;;;;;;;10.02;6.22;;;10.80;99.90;;;;;;5000616;28;20538;-71
2022/01/02 02:43:09;;;;;;;11.23;6.78;;;10.80;99.90;;;;;;5002702;28;20101;-71
2022/01/02 02:51:27;;;;;;;16.00;6.40;;;10.80;99.90;;;;;;4995950;28;20100;-71
2022/01/02 02:53:53;;;;;;;14.70;7.90;;;10.80;99.90;;;;;;5007295;28;21302;-70
2022/01/02 02:56:23;;;;;;;12.18;6.43;;;10.80;99.90;;;;;;5009696;28;20026;-71
2022/01/02 02:58:52;;;;;;;15.90;6.80;;;10.70;99.90;;;;;;5011876;28;20025;-71
2022/01/02 03:01:19;;;;;;;16.67;7.20;;;10.70;99.90;;;;;;5009247;28;20419;-71
2022/01/02 03:03:46;;;;;;;16.77;7.38;;;10.70;99.90;;;;;;5014443;28;20037;-71
2022/01/02 03:06:13;;;;;;;13.40;6.78;;;10.70;99.90;;;;;;5010777;28;20037;-71
2022/01/02 03:08:41;;;;;;;14.45;7.07;;;10.70;99.90;;;;;;5014737;28;20032;-71
2022/01/02 03:11:09;;;;;;;14.55;7.60;;;10.70;99.90;;;;;;5012282;28;20026;-71
2022/01/02 03:13:35;;;;;;;16.95;7.60;;;10.60;99.90;;;;;;5011707;28;20084;-71
2022/01/02 03:16:01;;;;;;;16.35;7.20;;;10.60;99.90;;;;;;5012784;28;20030;-71
2022/01/02 03:18:27;;;;;;;11.80;6.63;;;10.70;99.90;;;;;;5013831;28;20463;-71
2022/01/02 03:20:52;;;;;;;14.52;7.72;;;10.60;99.90;;;;;;5009590;28;20030;-71
2022/01/02 03:23:18;;;;;;;14.45;7.40;;;10.60;99.90;;;;;;5014067;28;20022;-71
2022/01/02 03:25:44;;;;;;;14.68;7.30;;;10.60;99.90;;;;;;5008089;28;20069;-71
2022/01/02 03:28:10;;;;;;;17.25;8.13;;;10.60;99.90;;;;;;5014986;28;20141;-71
2022/01/02 03:30:35;;;;;;;17.05;9.10;;;10.60;99.90;;;;;;5007531;28;20030;-71
2022/01/02 03:33:01;;;;;;;15.02;8.77;;;10.60;99.90;;;;;;5005691;28;20482;-71
2022/01/02 03:35:27;;;;;;;14.30;8.27;;;10.60;99.90;;;;;;5011246;28;20064;-71
2022/01/02 03:37:53;;;;;;;15.73;8.02;;;10.60;99.90;;;;;;5010413;28;20104;-71
2022/01/02 03:40:19;;;;;;;16.35;8.43;;;10.60;99.90;;;;;;5010336;28;20117;-72
2022/01/02 03:42:45;;;;;;;16.48;8.63;;;10.60;99.90;;;;;;5010704;28;20108;-71
2022/01/02 03:45:11;;;;;;;13.77;8.27;;;10.60;99.90;;;;;;5007366;28;20032;-71
2022/01/02 03:47:37;;;;;;;20.23;9.23;;;10.60;99.90;;;;;;5008243;28;20141;-71
2022/01/02 03:50:04;;;;;;;16.63;8.98;;;10.50;99.90;;;;;;5013189;28;20030;-71
2022/01/02 03:52:30;;;;;;;15.15;8.73;;;10.50;99.90;;;;;;5012272;28;20101;-70
2022/01/02 03:54:57;;;;;;;17.38;8.98;;;10.50;99.90;;;;;;5011212;28;20034;-71
2022/01/02 03:57:22;;;;;;;20.00;9.07;;;10.50;99.90;;;;;;5009071;28;20018;-71
2022/01/02 03:59:48;;;;;;;19.08;9.48;;;10.50;99.90;;;;;;5004784;28;20095;-71
2022/01/02 04:02:14;;;;;;;18.05;9.45;;;10.50;99.90;;;;;;5011812;28;20164;-71
2022/01/02 04:04:40;;;;;;;21.45;9.77;;;10.50;99.90;;;;;;5011189;28;20038;-70
2022/01/02 04:07:05;;;;;;;16.70;9.98;;;10.50;99.90;;;;;;5013747;28;20036;-72
2022/01/02 04:09:31;;;;;;;23.73;10.85;;;10.50;99.90;;;;;;5012130;28;20021;-72
2022/01/02 04:11:57;;;;;;;23.02;10.48;;;10.50;99.90;;;;;;5011434;28;20027;-72
2022/01/02 04:14:23;;;;;;;21.20;10.50;;;10.50;99.90;;;;;;5003530;28;20045;-72
2022/01/02 04:16:48;;;;;;;21.05;10.77;;;10.50;99.90;;;;;;5003324;28;20030;-72
2022/01/02 04:19:14;;;;;;;23.25;12.18;;;10.50;99.90;;;;;;5003776;28;20030;-72
2022/01/02 04:21:40;;;;;;;21.05;11.43;;;10.50;99.90;;;;;;5006327;28;20030;-72
2022/01/02 04:24:05;;;;;;;18.60;11.25;;;10.50;99.90;;;;;;5006606;28;20384;-72
2022/01/02 04:26:31;;;;;;;22.65;12.50;;;10.50;99.90;;;;;;5006325;28;20034;-72
2022/01/02 04:28:57;;;;;;;27.42;12.88;;;10.50;99.90;;;;;;5007926;28;20038;-72
2022/01/02 04:31:23;;;;;;;21.65;11.88;;;10.50;99.90;;;;;;5005432;28;20034;-72
2022/01/02 04:33:49;;;;;;;23.75;12.75;;;10.50;99.90;;;;;;5003926;28;20026;-72
2022/01/02 04:36:15;;;;;;;21.63;11.48;;;10.50;99.90;;;;;;5024315;28;20029;-72
2022/01/02 04:38:42;;;;;;;23.73;11.55;;;10.40;99.90;;;;;;5005558;28;20117;-72
2022/01/02 04:41:08;;;;;;;22.55;12.13;;;10.50;99.90;;;;;;5006987;28;20026;-72
2022/01/02 04:43:34;;;;;;;21.80;10.82;;;10.50;99.90;;;;;;5003200;28;20054;-72
2022/01/02 04:46:00;;;;;;;18.38;10.98;;;10.50;99.90;;;;;;5006852;28;20057;-72
2022/01/02 04:48:26;;;;;;;22.65;11.48;;;10.50;99.90;;;;;;5002779;28;20030;-71
2022/01/02 04:50:52;;;;;;;23.67;11.82;;;10.50;99.90;;;;;;5004951;28;20039;-71
2022/01/02 04:53:20;;;;;;;21.00;11.75;;;10.50;99.90;;;;;;5004816;28;20034;-71
2022/01/02 04:55:45;;;;;;;26.35;12.45;;;10.50;99.90;;;;;;5004669;28;20113;-72
2022/01/02 04:58:12;;;;;;;27.95;12.73;;;10.50;99.90;;;;;;5005735;28;20503;-71
2022/01/02 05:00:38;;;;;;;23.30;11.93;;;10.50;99.90;;;;;;5001684;28;20056;-72
2022/01/02 05:03:04;;;;;;;21.15;12.30;;;10.50;99.90;;;;;;5004558;28;20057;-72
2022/01/02 05:05:29;;;;;;;26.00;13.43;;;10.50;99.90;;;;;;5005075;28;20064;-72
2022/01/02 05:07:55;;;;;;;24.83;13.35;;;10.50;99.90;;;;;;5002647;28;20057;-72
2022/01/02 05:10:21;;;;;;;26.55;13.48;;;10.50;99.90;;;;;;5006803;28;20068;-72
2022/01/02 05:12:47;;;;;;;24.27;12.43;;;10.50;99.90;;;;;;5003174;28;20069;-71
2022/01/02 05:15:12;;;;;;;26.33;13.80;;;10.50;99.90;;;;;;5006402;28;20036;-71
2022/01/02 05:17:38;;;;;;;23.15;13.60;;;10.50;99.90;;;;;;5003581;28;20091;-71
2022/01/02 05:20:05;;;;;;;19.33;12.68;;;10.50;99.90;;;;;;5001353;28;20396;-71
2022/01/02 05:22:31;;;;;;;25.88;13.68;;;10.50;99.90;;;;;;5004507;28;20104;-72
2022/01/02 05:24:56;;;;;;;25.77;12.80;;;10.50;99.90;;;;;;5003339;28;20450;-71
2022/01/02 05:27:22;;;;;;;26.95;13.75;;;10.50;99.90;;;;;;5003060;28;20034;-72
2022/01/02 05:29:48;;;;;;;27.08;14.23;;;10.50;99.90;;;;;;5006067;28;20037;-71
2022/01/02 05:32:14;;;;;;;23.40;13.55;;;10.50;99.90;;;;;;5003652;28;20492;-72
2022/01/02 05:34:39;;;;;;;25.73;14.80;;;10.50;99.90;;;;;;5005731;28;20092;-72
2022/01/02 05:37:05;;;;;;;26.63;15.05;;;10.50;99.90;;;;;;5002933;28;20030;-71
2022/01/02 05:39:31;;;;;;;25.73;14.63;;;10.50;99.90;;;;;;5002446;28;20034;-72
2022/01/02 05:41:57;;;;;;;26.90;14.27;;;10.50;99.90;;;;;;5003886;28;20072;-71
2022/01/02 05:44:23;;;;;;;26.52;15.18;;;10.50;99.90;;;;;;5003256;28;20033;-71
2022/01/02 05:46:49;;;;;;;34.25;16.67;;;10.50;99.90;;;;;;5001029;28;20038;-71
2022/01/02 05:49:15;;;;;;;27.15;15.02;;;10.50;99.90;;;;;;5003912;28;20034;-72
2022/01/02 05:51:41;;;;;;;28.95;14.88;;;10.60;99.90;;;;;;5002234;28;20089;-71
2022/01/02 05:54:07;;;;;;;32.70;15.32;;;10.50;99.90;;;;;;5000742;28;20034;-71
2022/01/02 05:56:33;;;;;;;34.65;15.38;;;10.50;99.90;;;;;;5004445;28;20030;-71
2022/01/02 05:58:59;;;;;;;36.92;14.95;;;10.50;99.90;;;;;;5015719;28;20037;-72
2022/01/02 06:01:25;;;;;;;24.40;13.27;;;10.50;99.90;;;;;;5002191;28;20034;-71
2022/01/02 06:03:51;;;;;;;20.02;12.70;;;10.60;99.90;;;;;;5004017;28;20030;-72
2022/01/02 06:06:17;;;;;;;27.90;14.38;;;10.70;99.90;;;;;;5003571;28;20121;-72
2022/01/02 06:08:43;;;;;;;26.33;12.65;;;10.60;99.90;;;;;;5001138;28;20383;-71
2022/01/02 06:11:08;;;;;;;29.30;12.85;;;10.60;99.90;;;;;;5002657;28;20036;-72
2022/01/02 06:13:34;;;;;;;23.73;11.80;;;10.60;99.90;;;;;;5001021;28;20034;-71
2022/01/02 06:16:00;;;;;;;19.90;11.07;;;10.60;99.90;;;;;;5001440;28;20034;-71
2022/01/02 06:18:25;;;;;;;27.90;12.60;;;10.60;99.90;;;;;;5001839;28;20027;-71
2022/01/02 06:20:51;;;;;;;20.33;10.95;;;10.70;99.90;;;;;;5001209;28;20130;-71
2022/01/02 06:23:17;;;;;;;21.63;11.57;;;10.70;99.90;;;;;;4984897;28;20018;-71
2022/01/02 06:25:44;;;;;;;21.65;11.70;;;10.70;99.90;;;;;;5003314;28;20104;-72
2022/01/02 06:28:10;;;;;;;23.55;11.68;;;10.70;99.90;;;;;;5000380;28;20489;-72
2022/01/02 06:30:36;;;;;;;19.80;10.70;;;10.60;99.90;;;;;;5003072;28;20119;-72
2022/01/02 06:33:02;;;;;;;28.45;12.82;;;10.70;99.90;;;;;;5001666;28;20058;-71
2022/01/02 06:35:31;;;;;;;28.73;12.88;;;10.60;99.90;;;;;;5003881;28;20044;-72
2022/01/02 06:37:58;;;;;;;23.23;10.60;;;10.70;99.90;;;;;;5006453;28;20102;-71
2022/01/02 06:40:24;;;;;;;30.30;13.00;;;10.70;99.90;;;;;;5003420;28;20558;-71
2022/01/02 06:42:50;;;;;;;25.80;13.07;;;10.70;99.90;;;;;;5004395;28;20018;-71
2022/01/02 06:45:15;;;;;;;25.67;13.05;;;10.70;99.90;;;;;;5003208;28;20093;-72
2022/01/02 06:47:42;;;;;;;20.20;11.75;;;10.70;99.90;;;;;;5004672;28;20034;-71
2022/01/02 06:50:11;;;;;;;27.35;13.02;;;10.70;99.90;;;;;;5006795;28;20026;-71
2022/01/02 06:52:37;;;;;;;25.40;12.50;;;10.70;99.90;;;;;;5004426;28;20065;-71
2022/01/02 06:55:03;;;;;;;22.33;12.80;;;10.70;99.90;;;;;;5001812;28;20499;-71
2022/01/02 06:57:29;;;;;;;25.63;12.52;;;10.70;99.90;;;;;;5001357;28;20030;-72
2022/01/02 06:59:54;;;;;;;32.72;13.05;;;10.70;99.90;;;;;;5007123;28;20037;-71
2022/01/02 07:02:20;;;;;;;27.13;14.05;;;10.70;99.90;;;;;;4996538;28;20076;-72
2022/01/02 07:04:46;;;;;;;21.80;12.25;;;10.60;99.90;;;;;;5005122;28;20145;-71
2022/01/02 07:07:11;;;;;;;25.55;13.18;;;10.70;99.90;;;;;;5000471;28;20530;-72
2022/01/02 07:09:37;;;;;;;27.73;13.63;;;10.60;99.90;;;;;;5004418;28;20544;-71
2022/01/02 07:12:03;;;;;;;29.17;13.63;;;10.70;99.90;;;;;;5000517;28;20037;-71
2022/01/02 07:14:30;;;;;;;29.17;14.05;;;10.70;99.90;;;;;;5003216;28;20093;-72
2022/01/02 07:16:57;;;;;;;24.02;13.38;;;10.70;99.90;;;;;;5002240;28;20510;-72
2022/01/02 07:19:23;;;;;;;24.33;12.70;;;10.70;99.90;;;;;;4999106;28;20131;-72
2022/01/02 07:21:50;;;;;;;29.35;14.88;;;10.70;99.90;;;;;;5003264;28;20051;-71
2022/01/02 07:24:16;;;;;;;28.73;15.02;;;10.70;99.90;;;;;;5006769;28;20037;-71
2022/01/02 07:26:42;;;;;;;28.92;14.30;;;10.70;99.90;;;;;;5003144;28;20029;-71
2022/01/02 07:29:09;;;;;;;33.22;15.07;;;10.70;99.90;;;;;;5003494;28;20420;-72
2022/01/02 07:31:34;;;;;;;29.65;14.27;;;10.70;99.90;;;;;;5002405;28;20027;-71
2022/01/02 07:34:00;;;;;;;33.40;14.98;;;10.70;99.90;;;;;;5003297;28;20104;-71
2022/01/02 07:36:26;;;;;;;32.80;14.60;;;10.70;99.90;;;;;;5003592;28;20037;-72
2022/01/02 07:38:52;;;;;;;27.55;13.65;;;10.70;99.90;;;;;;5003884;28;20038;-72
2022/01/02 07:41:17;;;;;;;31.25;14.32;;;10.70;99.90;;;;;;5005973;28;20032;-71
2022/01/02 07:43:43;;;;;;;29.02;12.48;;;10.70;99.90;;;;;;5006716;28;20054;-71
2022/01/02 07:46:08;;;;;;;28.05;13.02;;;10.80;99.90;;;;;;5006512;28;20034;-71
2022/01/02 07:48:34;;;;;;;34.53;13.25;;;10.80;99.90;;;;;;5008302;28;20026;-71
2022/01/02 07:51:00;;;;;;;31.25;14.18;;;10.70;99.90;;;;;;5005835;28;20056;-71
2022/01/02 07:53:26;;;;;;;35.40;13.80;;;10.80;99.90;;;;;;5007274;28;20380;-72
2022/01/02 07:55:54;;;;;;;33.97;13.90;;;10.80;99.90;;;;;;5006879;28;20480;-71
2022/01/02 07:58:20;;;;;;;27.83;13.65;;;10.80;99.90;;;;;;5006770;28;20038;-71
2022/01/02 08:00:45;;;;;;;34.63;13.48;;;10.80;99.90;;;;;;5006279;28;20040;-71
2022/01/02 08:03:11;;;;;;;33.60;14.05;;;10.90;99.90;;;;;;5007041;28;20117;-71
2022/01/02 08:05:37;;;;;;;31.45;13.20;;;10.90;99.90;;;;;;5008383;28;20110;-72
2022/01/02 08:08:03;;;;;;;27.05;13.00;;;10.90;99.90;;;;;;5005777;28;20030;-72
2022/01/02 08:10:28;;;;;;;29.42;12.73;;;10.90;99.90;;;;;;5008812;28;20372;-72
2022/01/02 08:12:55;;;;;;;29.17;11.63;;;11.00;99.90;;;;;;5008225;28;20408;-71
2022/01/02 08:15:21;;;;;;;29.45;12.45;;;10.90;99.90;;;;;;5010340;28;20319;-72
2022/01/02 08:17:47;;;;;;;27.35;10.60;;;11.00;99.90;;;;;;5006442;28;20044;-72
2022/01/02 08:20:13;;;;;;;25.38;11.10;;;11.00;99.90;;;;;;5006686;28;20072;-72
2022/01/02 08:22:39;;;;;;;22.10;11.38;;;11.00;99.90;;;;;;5004015;28;20400;-72
2022/01/02 08:25:06;;;;;;;32.38;12.13;;;11.00;99.90;;;;;;5004513;28;20061;-71
2022/01/02 08:27:32;;;;;;;27.48;11.60;;;11.00;99.90;;;;;;5003784;28;20471;-71
2022/01/02 08:29:58;;;;;;;25.77;11.13;;;11.00;99.90;;;;;;5002557;28;20034;-72
2022/01/02 08:32:24;;;;;;;23.08;11.80;;;11.00;99.90;;;;;;5005140;28;20091;-71
2022/01/02 08:34:50;;;;;;;27.17;11.63;;;11.00;99.90;;;;;;5005707;28;20147;-71
2022/01/02 08:37:16;;;;;;;26.77;10.43;;;11.10;99.90;;;;;;5003814;28;20458;-71
2022/01/02 08:39:44;;;;;;;22.38;10.00;;;11.10;99.90;;;;;;5007274;28;20057;-71
2022/01/02 08:42:11;;;;;;;21.23;10.07;;;11.10;99.90;;;;;;5008083;28;20030;-71
2022/01/02 08:44:39;;;;;;;22.33;9.32;;;11.10;99.90;;;;;;5006162;28;20110;-71
2022/01/02 08:47:06;;;;;;;27.63;9.45;;;11.10;99.90;;;;;;5005613;28;20069;-72
2022/01/02 08:49:32;;;;;;;23.00;9.68;;;11.20;99.90;;;;;;5006030;28;20025;-72
2022/01/02 08:51:58;;;;;;;18.83;9.05;;;11.20;99.90;;;;;;5003390;28;20484;-72
2022/01/02 08:54:24;;;;;;;21.55;8.88;;;11.20;99.90;;;;;;5006655;28;20030;-71
2022/01/02 08:56:50;;;;;;;19.17;8.98;;;11.20;99.90;;;;;;5004789;28;20575;-72
2022/01/02 08:59:17;;;;;;;17.80;9.10;;;11.20;99.90;;;;;;5008208;28;20427;-72
2022/01/02 09:01:43;;;;;;;18.60;7.80;;;11.20;99.90;;;;;;5006229;28;20030;-72
2022/01/02 09:04:09;;;;;;;17.95;8.10;;;11.30;99.90;;;;;;5012522;28;20046;-74
2022/01/02 09:06:34;;;;;;;15.85;7.72;;;11.30;99.90;;;;;;5003009;28;20421;-72
2022/01/02 09:09:00;;;;;;;15.45;7.93;;;11.30;99.90;;;;;;5006767;28;20029;-72
2022/01/02 09:11:26;;;;;;;17.48;7.00;;;11.30;99.90;;;;;;5008779;28;20100;-71
2022/01/02 09:13:52;;;;;;;15.52;7.10;;;11.30;99.90;;;;;;5006973;28;20112;-72
2022/01/02 09:16:18;;;;;;;18.48;7.40;;;11.40;99.90;;;;;;5009488;28;20495;-71
2022/01/02 09:18:43;;;;;;;15.13;6.80;;;11.40;99.90;;;;;;5011387;28;20052;-72
2022/01/02 09:21:09;;;;;;;12.77;6.03;;;11.40;99.90;;;;;;5006791;28;20034;-72
2022/01/02 09:23:36;;;;;;;14.68;7.13;;;11.40;99.90;;;;;;5008443;28;20101;-72
2022/01/02 09:26:02;;;;;;;18.52;7.07;;;11.40;99.90;;;;;;5006280;28;20026;-72
2022/01/02 09:28:27;;;;;;;20.38;6.68;;;11.40;99.90;;;;;;5017378;28;20541;-72
2022/01/02 09:30:53;;;;;;;17.67;6.70;;;11.40;99.90;;;;;;5002997;28;20104;-72
2022/01/02 09:33:19;;;;;;;17.05;7.32;;;11.40;99.90;;;;;;5019146;28;20044;-72
2022/01/02 09:35:45;;;;;;;17.83;7.15;;;11.40;99.90;;;;;;5016430;28;20053;-71
2022/01/02 09:38:11;;;;;;;14.35;6.32;;;11.40;99.90;;;;;;5019924;28;20487;-73
2022/01/02 09:40:40;;;;;;;14.38;6.13;;;11.40;99.90;;;;;;5011451;28;20044;-72
2022/01/02 09:43:06;;;;;;;17.08;6.40;;;11.50;99.90;;;;;;5006391;28;20026;-72
2022/01/02 09:45:38;;;;;;;16.52;6.47;;;11.40;99.90;;;;;;5015333;28;20044;-72
2022/01/02 09:48:05;;;;;;;12.88;6.00;;;11.50;99.90;;;;;;5012468;28;20022;-72
2022/01/02 09:50:32;;;;;;;14.00;6.00;;;11.50;99.90;;;;;;5000670;28;20030;-71
2022/01/02 09:52:58;;;;;;;19.35;5.95;;;11.50;99.90;;;;;;5007318;28;20080;-71
2022/01/02 09:55:24;;;;;;;15.05;6.22;;;11.50;99.90;;;;;;5006213;28;20038;-72
2022/01/02 09:57:53;;;;;;;16.52;6.22;;;11.50;99.90;;;;;;5012464;28;20122;-72
2022/01/02 10:00:20;;;;;;;13.77;6.05;;;11.50;99.90;;;;;;5006378;28;20044;-72
2022/01/02 10:03:03;;;;;;;17.45;5.88;;;11.50;99.90;;;;;;5006651;28;20034;-71
2022/01/02 10:05:47;;;;;;;19.13;7.63;;;11.50;99.90;;;;;;5013591;28;20049;-72
2022/01/02 10:08:22;;;;;;;14.50;5.88;;;11.50;99.90;;;;;;5007187;28;20036;-71
2022/01/02 10:10:56;;;;;;;10.38;5.13;;;11.50;99.90;;;;;;5009156;28;20506;-71
2022/01/02 10:13:39;;;;;;;11.90;4.55;;;11.50;99.90;;;;;;5009206;28;20053;-72
2022/01/02 10:16:23;;;;;;;15.85;5.28;;;11.50;99.90;;;;;;5005363;28;20026;-72
2022/01/02 10:18:52;;;;;;;13.82;5.05;;;11.50;99.90;;;;;;5009632;28;20428;-73
2022/01/02 10:21:31;;;;;;;10.70;5.22;;;11.60;99.90;;;;;;5004784;28;20048;-72
2022/01/02 10:24:21;;;;;;;13.48;5.10;;;11.60;99.90;;;;;;5004453;28;20033;-72
2022/01/02 10:27:13;;;;;;;18.65;5.40;;;11.50;99.90;;;;;;5001526;28;20030;-70
2022/01/02 10:29:59;;;;;;;11.82;5.28;;;11.50;99.90;;;;;;5003364;28;20514;-72
2022/01/02 10:32:32;;;;;;;12.13;5.40;;;11.50;99.90;;;;;;5000647;28;20495;-71
2022/01/02 10:35:13;;;;;;;9.90;4.93;;;11.50;99.90;;;;;;5004122;28;20458;-71
2022/01/02 10:37:41;;;;;;;11.95;4.65;;;11.60;99.90;;;;;;5007191;28;20459;-74
2022/01/02 10:40:25;;;;;;;14.25;5.70;;;11.50;99.90;;;;;;5005982;28;20507;-72
2022/01/02 10:42:51;;;;;;;15.65;5.10;;;11.50;99.90;;;;;;5001771;28;20105;-71
2022/01/02 10:45:39;;;;;;;15.93;5.10;;;11.50;99.90;;;;;;5008203;28;20101;-72
2022/01/02 10:48:09;;;;;;;11.57;5.30;;;11.60;99.90;;;;;;5006177;28;20084;-71
2022/01/02 10:50:36;;;;;;;12.95;4.72;;;11.50;99.90;;;;;;5008880;28;20033;-71
2022/01/02 10:53:17;;;;;;;11.27;4.47;;;11.50;99.90;;;;;;5009832;28;20387;-74
2022/01/02 10:55:45;;;;;;;;;;;11.50;99.90;;;;;;5004776;28;20026;-71
2022/01/02 10:58:11;;;;;;;8.88;4.65;;;11.60;99.90;;;;;;5002668;28;19909;-71
2022/01/02 11:00:37;;;;;;;15.00;5.05;;;11.60;99.90;;;;;;5002301;28;20030;-71
2022/01/02 11:03:06;;;;;;;14.13;5.70;;;11.50;99.90;;;;;;5001458;28;20022;-72
2022/01/02 11:05:33;;;;;;;14.43;5.43;;;11.50;99.90;;;;;;5004517;28;20046;-71
2022/01/02 11:08:00;;;;;;;14.30;5.15;;;11.50;99.90;;;;;;5003570;28;20377;-71
2022/01/02 11:10:28;;;;;;;14.40;5.40;;;11.50;99.90;;;;;;5001003;28;20100;-72
2022/01/02 11:12:55;;;;;;;20.95;6.47;;;11.50;99.90;;;;;;5006353;28;20033;-71
2022/01/02 11:15:22;;;;;;;13.85;6.13;;;11.50;99.90;;;;;;5014088;28;20439;-70
2022/01/02 11:17:49;;;;;;;12.82;5.18;;;11.50;99.90;;;;;;5012144;28;20084;-71
2022/01/02 11:20:23;;;;;;;16.90;5.82;;;11.50;99.90;;;;;;5011318;28;20128;-71
2022/01/02 11:23:10;;;;;;;17.02;5.50;;;11.50;99.90;;;;;;5011512;28;20025;-71
2022/01/02 11:25:50;;;;;;;13.32;6.78;;;11.50;99.90;;;;;;5021950;28;20132;-71
2022/01/02 11:28:25;;;;;;;17.75;6.60;;;11.50;99.90;;;;;;5013472;28;20018;-71
2022/01/02 11:30:52;;;;;;;13.65;6.47;;;11.50;99.90;;;;;;5014027;28;20112;-71
2022/01/02 11:33:27;;;;;;;16.98;6.43;;;11.50;99.90;;;;;;5018271;28;20026;-71
2022/01/02 11:35:56;;;;;;;10.27;5.97;;;11.50;99.90;;;;;;5016270;28;20065;-73
2022/01/02 11:38:22;;;;;;;17.00;5.85;;;11.50;99.90;;;;;;5015169;28;20057;-71
2022/01/02 11:40:56;;;;;;;12.13;5.60;;;11.50;99.90;;;;;;5014247;28;20037;-71
2022/01/02 11:43:57;;;;;;;19.38;6.65;;;11.50;99.90;;;;;;5013048;28;20022;-71
2022/01/02 11:46:25;;;;;;;16.80;6.25;;;11.50;99.90;;;;;;5010205;28;20037;-71
2022/01/02 11:49:04;;;;;;;18.90;7.43;;;11.50;99.90;;;;;;5009128;28;20635;-71
2022/01/02 11:51:48;;;;;;;10.95;6.20;;;11.40;99.90;;;;;;5008989;28;20045;-72
2022/01/02 11:54:32;;;;;;;11.57;5.82;;;11.50;99.90;;;;;;5013353;28;20053;-71
2022/01/02 11:56:59;;;;;;;18.65;6.22;;;11.50;99.90;;;;;;5010064;28;20040;-72
2022/01/02 11:59:40;;;;;;;15.10;6.72;;;11.40;99.90;;;;;;5018821;28;20100;-71
2022/01/02 12:02:17;;;;;;;17.90;6.50;;;11.40;99.90;;;;;;5007555;28;20104;-74
2022/01/02 12:04:58;;;;;;;13.68;6.75;;;11.40;99.90;;;;;;5008821;28;20447;-74
2022/01/02 12:07:33;;;;;;;;;;;11.50;99.90;;;;;;5018770;28;20517;-74
2022/01/02 12:10:17;;;;;;;15.43;6.32;;;11.50;99.90;;;;;;5007100;28;19909;-75
2022/01/02 12:13:17;;;;;;;15.75;6.55;;;11.50;99.90;;;;;;5014471;28;20037;-77
2022/01/02 12:16:02;;;;;;;17.20;6.32;;;11.50;99.90;;;;;;5006733;28;20637;-73
2022/01/02 12:18:29;;;;;;;15.35;6.88;;;11.50;99.90;;;;;;5007007;28;20484;-75
2022/01/02 12:21:00;;;;;;;20.60;6.53;;;11.50;99.90;;;;;;5006224;28;20388;-74
2022/01/02 12:23:40;;;;;;;17.65;6.10;;;11.50;99.90;;;;;;5007228;28;20113;-75
2022/01/02 12:26:20;;;;;;;20.20;7.00;;;11.50;99.90;;;;;;5003715;28;20034;-76
2022/01/02 12:29:02;;;;;;;19.88;7.40;;;11.50;99.90;;;;;;5017197;28;20096;-75
2022/01/02 12:31:35;;;;;;;24.10;7.45;;;11.50;99.90;;;;;;5009100;28;20675;-76
2022/01/02 12:34:22;;;;;;;20.83;6.82;;;11.50;99.90;;;;;;5002399;28;20122;-75
2022/01/02 12:36:51;;;;;;;16.55;7.15;;;11.50;99.90;;;;;;5006415;28;20093;-74
2022/01/02 12:39:24;;;;;;;23.60;7.88;;;11.50;99.90;;;;;;5006914;28;20027;-75
2022/01/02 12:41:50;;;;;;;19.17;7.68;;;11.50;99.90;;;;;;5006180;28;20033;-74
2022/01/02 12:44:25;;;;;;;18.55;7.50;;;11.50;99.90;;;;;;5004545;28;20033;-75
2022/01/02 12:46:59;;;;;;;15.27;7.00;;;11.50;99.90;;;;;;5001051;28;20018;-75
2022/01/02 12:49:30;;;;;;;17.92;7.00;;;11.50;99.90;;;;;;5003360;28;20101;-75
2022/01/02 12:52:03;;;;;;;15.90;6.95;;;11.60;99.90;;;;;;5005830;28;20042;-75